Time;durP1;ratioP1;P1;durP2;ratioP2;P2;SDS_P1;SDS_P2;PMS_P1;PMS_P2;Temp;Humidity;BMP_temperature;BMP_pressure;BME280_temperature;BME280_humidity;BME280_pressure;Samples;Min_cycle;Max_cycle;Signal;HPM_P1;HPM_P2
2022/05/27 00:00:17;;;;;;;1.52;1.33;;;23.20;53.10;;;;;;5092238;28;20434;-66
2022/05/27 00:02:45;;;;;;;1.45;1.20;;;23.20;53.10;;;;;;5091634;28;20459;-66
2022/05/27 00:05:11;;;;;;;1.90;1.40;;;23.20;53.00;;;;;;5091402;28;20390;-66
2022/05/27 00:07:37;;;;;;;1.95;1.38;;;23.20;53.10;;;;;;5090774;28;20394;-66
2022/05/27 00:10:04;;;;;;;1.50;1.30;;;23.20;53.00;;;;;;5090740;28;20862;-67
2022/05/27 00:12:30;;;;;;;1.33;1.23;;;23.20;53.00;;;;;;5087829;28;20430;-66
2022/05/27 00:14:55;;;;;;;1.85;1.50;;;23.20;53.10;;;;;;5090508;28;20915;-66
2022/05/27 00:17:21;;;;;;;1.35;1.00;;;23.20;53.20;;;;;;5089473;28;20393;-66
2022/05/27 00:19:47;;;;;;;1.70;1.40;;;23.10;53.20;;;;;;5090670;28;20382;-66
2022/05/27 00:22:13;;;;;;;1.83;1.35;;;23.10;53.20;;;;;;5090531;28;20417;-66
2022/05/27 00:24:38;;;;;;;1.40;1.20;;;23.10;53.20;;;;;;5090202;28;20386;-66
2022/05/27 00:27:08;;;;;;;1.75;1.30;;;23.10;53.20;;;;;;5090475;28;20402;-66
2022/05/27 00:29:34;;;;;;;2.03;1.20;;;23.10;53.00;;;;;;5088217;28;20470;-66
2022/05/27 00:31:59;;;;;;;1.90;1.20;;;23.10;52.80;;;;;;5089211;28;20443;-66
2022/05/27 00:34:25;;;;;;;1.70;1.20;;;23.10;52.70;;;;;;5090373;28;20382;-66
2022/05/27 00:36:51;;;;;;;1.75;1.40;;;23.10;52.80;;;;;;5090015;28;20864;-66
2022/05/27 00:39:16;;;;;;;1.67;1.30;;;23.10;52.70;;;;;;5090259;28;20389;-66
2022/05/27 00:41:42;;;;;;;2.00;1.30;;;23.00;52.70;;;;;;5090335;28;20424;-66
2022/05/27 00:44:08;;;;;;;1.40;1.17;;;23.10;52.70;;;;;;5090542;28;20382;-66
2022/05/27 00:46:35;;;;;;;2.10;1.30;;;23.10;52.70;;;;;;5090066;28;20955;-66
2022/05/27 00:49:26;;;;;;;1.83;1.23;;;23.10;52.60;;;;;;5088513;28;21011;-67
2022/05/27 00:52:12;;;;;;;1.95;1.30;;;23.00;52.60;;;;;;5080135;28;20406;-66
2022/05/27 00:54:38;;;;;;;2.65;1.35;;;23.00;52.60;;;;;;5087518;28;20777;-66
2022/05/27 00:57:10;;;;;;;1.50;1.20;;;23.00;52.60;;;;;;5091585;28;20385;-66
2022/05/27 01:00:06;;;;;;;1.90;1.35;;;23.00;52.70;;;;;;5090242;28;20401;-66
2022/05/27 01:02:36;;;;;;;1.52;1.33;;;23.00;52.90;;;;;;5062242;28;20550;-66
2022/05/27 01:05:05;;;;;;;1.48;1.20;;;23.00;52.80;;;;;;5089590;28;20413;-66
2022/05/27 01:07:31;;;;;;;1.70;1.42;;;23.00;52.70;;;;;;5089808;28;20386;-66
2022/05/27 01:09:57;;;;;;;2.20;1.60;;;23.00;52.70;;;;;;5089994;28;20398;-66
2022/05/27 01:12:41;;;;;;;1.77;1.40;;;23.00;52.60;;;;;;5091256;28;20385;-66
2022/05/27 01:15:34;;;;;;;1.88;1.40;;;23.00;52.60;;;;;;5091337;28;20382;-66
2022/05/27 01:18:24;;;;;;;2.03;1.10;;;23.00;52.60;;;;;;5091099;28;20386;-66
2022/05/27 01:20:50;;;;;;;1.88;1.50;;;23.00;52.50;;;;;;5090744;28;20394;-66
2022/05/27 01:23:55;;;;;;;1.50;1.30;;;23.00;52.50;;;;;;5091178;28;20389;-66
2022/05/27 01:26:44;;;;;;;1.40;1.20;;;23.00;52.50;;;;;;5091217;28;20743;-65
2022/05/27 01:29:25;;;;;;;2.00;1.50;;;22.90;52.40;;;;;;5091103;28;20432;-66
2022/05/27 01:32:03;;;;;;;1.83;1.35;;;22.90;52.50;;;;;;5091149;28;20388;-66
2022/05/27 01:34:43;;;;;;;2.10;1.50;;;22.90;52.40;;;;;;5091229;28;20410;-66
2022/05/27 01:37:20;;;;;;;2.55;1.60;;;22.90;52.50;;;;;;5091179;28;20402;-66
2022/05/27 01:40:12;;;;;;;2.42;1.38;;;22.90;52.50;;;;;;5091218;28;20383;-66
2022/05/27 01:42:43;;;;;;;1.75;1.35;;;22.90;52.40;;;;;;5090747;28;20550;-66
2022/05/27 01:45:24;;;;;;;2.22;1.50;;;22.90;52.50;;;;;;5090957;28;20435;-66
2022/05/27 01:47:55;;;;;;;1.85;1.35;;;22.90;52.60;;;;;;5091129;28;20413;-66
2022/05/27 01:50:27;;;;;;;1.27;1.13;;;22.90;52.70;;;;;;5091070;28;20389;-66
2022/05/27 01:53:08;;;;;;;1.30;1.10;;;22.90;52.60;;;;;;5089265;28;20398;-65
2022/05/27 01:56:10;;;;;;;2.28;1.40;;;22.90;52.60;;;;;;5089720;28;20427;-65
2022/05/27 01:58:43;;;;;;;1.95;1.30;;;22.90;52.50;;;;;;5090752;28;20890;-66
2022/05/27 02:01:15;;;;;;;1.50;1.20;;;22.90;52.40;;;;;;5091810;28;20397;-65
2022/05/27 02:03:47;;;;;;;1.60;1.10;;;22.90;52.30;;;;;;5094552;28;20387;-66
2022/05/27 02:06:27;;;;;;;1.50;1.38;;;22.80;52.30;;;;;;5094270;28;20389;-65
2022/05/27 02:09:06;;;;;;;1.70;1.45;;;22.90;52.30;;;;;;5094038;28;20451;-66
2022/05/27 02:11:33;;;;;;;1.90;1.30;;;22.80;52.30;;;;;;5093184;28;20910;-65
2022/05/27 02:14:01;;;;;;;1.40;1.20;;;22.80;52.30;;;;;;5092964;28;20390;-66
2022/05/27 02:16:37;;;;;;;1.30;1.20;;;22.80;52.30;;;;;;5094398;28;20392;-66
2022/05/27 02:19:32;;;;;;;1.70;1.10;;;22.80;52.30;;;;;;5092678;28;20394;-66
2022/05/27 02:22:06;;;;;;;2.00;1.10;;;22.80;52.20;;;;;;5094133;28;20902;-66
2022/05/27 02:24:54;;;;;;;1.40;1.20;;;22.80;52.30;;;;;;5092910;28;20409;-66
2022/05/27 02:27:29;;;;;;;1.52;1.30;;;22.80;52.30;;;;;;5092652;28;20443;-66
2022/05/27 02:29:59;;;;;;;2.77;1.10;;;22.80;52.30;;;;;;5093937;28;20391;-66
2022/05/27 02:32:31;;;;;;;1.87;1.07;;;22.80;52.40;;;;;;5092734;28;20390;-66
2022/05/27 02:35:25;;;;;;;1.60;1.15;;;22.80;52.40;;;;;;5093461;28;20414;-66
2022/05/27 02:37:53;;;;;;;2.10;1.10;;;22.80;52.40;;;;;;5092043;28;20410;-66
2022/05/27 02:40:54;;;;;;;1.67;1.27;;;22.80;52.30;;;;;;5093494;28;20432;-66
2022/05/27 02:43:49;;;;;;;1.60;1.27;;;22.80;52.30;;;;;;5087448;28;20770;-66
2022/05/27 02:46:26;;;;;;;1.60;1.10;;;22.80;52.30;;;;;;5091396;28;20409;-66
2022/05/27 02:49:17;;;;;;;1.77;1.40;;;22.80;52.30;;;;;;5093108;28;20383;-66
2022/05/27 02:52:04;;;;;;;1.40;1.10;;;22.70;52.20;;;;;;5093514;28;20398;-66
2022/05/27 02:54:38;;;;;;;1.23;1.00;;;22.70;52.20;;;;;;5091811;28;20418;-65
2022/05/27 02:57:19;;;;;;;1.98;1.10;;;22.70;52.20;;;;;;5091916;28;20402;-65
2022/05/27 02:59:45;;;;;;;1.50;1.00;;;22.70;52.20;;;;;;5093392;28;20431;-65
2022/05/27 03:02:14;;;;;;;2.05;1.20;;;22.70;52.20;;;;;;5093084;28;20409;-66
2022/05/27 03:04:44;;;;;;;1.70;1.30;;;22.70;52.20;;;;;;5093222;28;20374;-66
2022/05/27 03:07:36;;;;;;;1.98;1.30;;;22.70;52.20;;;;;;5093098;28;20902;-66
2022/05/27 03:10:35;;;;;;;1.88;1.20;;;22.70;53.00;;;;;;5091982;28;20390;-66
2022/05/27 03:13:12;;;;;;;3.28;1.80;;;22.70;53.90;;;;;;5092540;28;20796;-66
2022/05/27 03:15:50;;;;;;;7.55;4.72;;;22.80;54.40;;;;;;5093219;28;20954;-66
2022/05/27 03:18:31;;;;;;;5.03;2.93;;;22.80;56.10;;;;;;5093075;28;20386;-65
2022/05/27 03:21:12;;;;;;;5.80;2.90;;;22.80;55.00;;;;;;5091163;28;20551;-66
2022/05/27 03:24:02;;;;;;;5.70;2.60;;;22.80;55.50;;;;;;5092958;28;20390;-66
2022/05/27 03:26:37;;;;;;;4.82;2.38;;;22.80;56.40;;;;;;5091842;28;20398;-65
2022/05/27 03:29:28;;;;;;;6.90;2.13;;;22.90;55.90;;;;;;5092625;28;20382;-65
2022/05/27 03:32:13;;;;;;;3.70;1.83;;;22.90;55.40;;;;;;5091292;28;20405;-65
2022/05/27 03:34:50;;;;;;;4.30;2.00;;;22.90;55.80;;;;;;5092533;28;20469;-65
2022/05/27 03:37:38;;;;;;;9.30;1.88;;;23.00;55.70;;;;;;5091379;28;20458;-65
2022/05/27 03:40:09;;;;;;;6.03;1.50;;;23.00;55.80;;;;;;5092496;28;20378;-65
2022/05/27 03:42:36;;;;;;;3.88;1.60;;;23.10;55.60;;;;;;5095792;28;20406;-65
2022/05/27 03:45:09;;;;;;;2.30;1.55;;;23.10;55.40;;;;;;5092666;28;20382;-65
2022/05/27 03:47:36;;;;;;;4.38;1.80;;;23.10;55.30;;;;;;5093077;28;20374;-65
2022/05/27 03:50:02;;;;;;;2.50;1.67;;;23.10;55.30;;;;;;5092442;28;20397;-65
2022/05/27 03:52:35;;;;;;;3.13;1.70;;;23.10;55.00;;;;;;5090960;28;20754;-65
2022/05/27 03:55:01;;;;;;;3.70;1.60;;;23.10;54.70;;;;;;5090638;28;20404;-65
2022/05/27 03:57:27;;;;;;;8.27;1.83;;;23.00;54.80;;;;;;5092283;28;20407;-65
2022/05/27 03:59:52;;;;;;;4.10;1.30;;;23.00;54.60;;;;;;5092137;28;20392;-65
2022/05/27 04:02:18;;;;;;;4.63;1.48;;;23.10;55.40;;;;;;5092015;28;20579;-65
2022/05/27 04:04:44;;;;;;;3.15;1.55;;;23.10;55.30;;;;;;5091894;28;20756;-65
2022/05/27 04:07:10;;;;;;;2.88;1.50;;;23.10;55.00;;;;;;5091981;28;20390;-65
2022/05/27 04:09:36;;;;;;;3.63;1.30;;;23.10;55.00;;;;;;5090088;28;20398;-65
2022/05/27 04:12:03;;;;;;;4.07;1.52;;;23.10;54.80;;;;;;5090739;28;20386;-65
2022/05/27 04:14:31;;;;;;;4.25;1.30;;;23.10;54.70;;;;;;5090881;28;20375;-65
2022/05/27 04:17:27;;;;;;;2.63;1.30;;;23.20;54.80;;;;;;5090511;28;20421;-66
2022/05/27 04:19:43;;;;;;;6.60;1.55;;;23.20;54.80;;;;;;5088877;28;20389;-66
2022/05/27 04:22:09;;;;;;;7.68;1.60;;;23.20;54.50;;;;;;5091922;28;20452;-66
2022/05/27 04:24:35;;;;;;;2.88;1.35;;;23.20;54.50;;;;;;5090205;28;20382;-66
2022/05/27 04:27:20;;;;;;;5.93;1.40;;;23.10;54.20;;;;;;5089716;28;20386;-67
2022/05/27 04:29:49;;;;;;;5.83;1.70;;;23.20;54.40;;;;;;5088200;28;20426;-66
2022/05/27 04:32:15;;;;;;;5.10;1.50;;;23.10;54.10;;;;;;5099782;28;20402;-66
2022/05/27 04:34:42;;;;;;;6.78;1.83;;;23.10;53.70;;;;;;5097678;28;20397;-66
2022/05/27 04:37:09;;;;;;;8.73;1.60;;;23.00;53.60;;;;;;5090219;28;20493;-65
2022/05/27 04:39:35;;;;;;;10.40;1.70;;;23.00;53.20;;;;;;5091709;28;20457;-66
2022/05/27 04:42:01;;;;;;;10.60;2.10;;;22.90;53.10;;;;;;5091661;28;20455;-66
2022/05/27 04:44:27;;;;;;;4.88;2.00;;;22.90;53.10;;;;;;5091581;28;20386;-66
2022/05/27 04:46:53;;;;;;;16.85;1.95;;;22.90;52.90;;;;;;5091423;28;20750;-66
2022/05/27 04:52:05;;;;;;;9.63;2.42;;;22.80;52.70;;;;;;5091568;28;20474;-66
2022/05/27 04:54:31;;;;;;;13.18;2.20;;;22.80;53.20;;;;;;5107910;28;20885;-66
2022/05/27 04:56:58;;;;;;;9.35;2.20;;;22.80;52.90;;;;;;5111739;28;20441;-66
2022/05/27 04:59:24;;;;;;;8.23;1.83;;;22.80;53.10;;;;;;5112117;28;20376;-66
2022/05/27 05:01:50;;;;;;;8.95;1.90;;;22.80;53.00;;;;;;5112025;28;20415;-66
2022/05/27 05:04:16;;;;;;;8.10;1.90;;;22.80;53.00;;;;;;5112072;28;20445;-66
2022/05/27 05:06:43;;;;;;;8.23;2.20;;;22.80;53.10;;;;;;5111779;28;20391;-66
2022/05/27 05:09:09;;;;;;;7.05;1.92;;;22.80;53.00;;;;;;5111275;28;20384;-66
2022/05/27 05:11:35;;;;;;;7.97;2.20;;;22.80;53.10;;;;;;5099260;28;20874;-66
2022/05/27 05:14:01;;;;;;;5.13;2.10;;;22.80;53.00;;;;;;5091369;28;20378;-66
2022/05/27 05:16:27;;;;;;;5.45;1.70;;;22.70;53.00;;;;;;5089903;28;20755;-66
2022/05/27 05:18:53;;;;;;;6.75;1.88;;;22.70;53.00;;;;;;5090883;28;20456;-65
2022/05/27 05:21:19;;;;;;;5.87;1.60;;;22.70;53.10;;;;;;5091225;28;20968;-66
2022/05/27 05:23:45;;;;;;;5.90;1.80;;;22.70;53.00;;;;;;5091647;28;20467;-66
2022/05/27 05:26:11;;;;;;;4.75;1.67;;;22.70;53.00;;;;;;5091254;28;20893;-66
2022/05/27 05:28:37;;;;;;;5.10;1.90;;;22.70;53.00;;;;;;5091329;28;20451;-65
2022/05/27 05:31:02;;;;;;;4.55;1.90;;;22.70;53.00;;;;;;5103014;28;20475;-66
2022/05/27 05:33:28;;;;;;;3.60;1.90;;;22.70;53.00;;;;;;5111542;28;20425;-66
2022/05/27 05:35:54;;;;;;;3.90;1.90;;;22.70;53.00;;;;;;5112167;28;20388;-66
2022/05/27 05:38:19;;;;;;;3.05;1.90;;;22.70;53.10;;;;;;5115499;28;20880;-66
2022/05/27 05:40:46;;;;;;;4.90;2.20;;;22.70;53.10;;;;;;5112865;28;20888;-66
2022/05/27 05:43:13;;;;;;;3.10;1.73;;;22.70;53.10;;;;;;5093460;28;20422;-66
2022/05/27 05:45:39;;;;;;;3.75;1.80;;;22.70;53.10;;;;;;5095026;28;20434;-66
2022/05/27 05:48:06;;;;;;;4.40;1.70;;;22.70;53.10;;;;;;5101561;28;20415;-65
2022/05/27 05:50:33;;;;;;;5.15;1.95;;;22.70;53.10;;;;;;5115137;28;20391;-66
2022/05/27 05:52:59;;;;;;;4.03;1.92;;;22.70;53.00;;;;;;5114535;28;20493;-66
2022/05/27 05:55:25;;;;;;;3.72;1.60;;;22.70;53.00;;;;;;5115203;28;20752;-66
2022/05/27 05:57:51;;;;;;;4.30;1.75;;;22.70;53.10;;;;;;5115391;28;20384;-65
2022/05/27 06:00:23;;;;;;;4.97;1.80;;;22.70;53.10;;;;;;5115051;28;20449;-65
2022/05/27 06:02:49;;;;;;;4.57;1.83;;;22.70;53.00;;;;;;5114983;28;20444;-66
2022/05/27 06:05:15;;;;;;;3.70;2.40;;;22.70;53.10;;;;;;5114688;28;20423;-65
2022/05/27 06:07:41;;;;;;;3.97;2.77;;;22.60;53.10;;;;;;5114497;28;20403;-66
2022/05/27 06:10:08;;;;;;;3.95;2.70;;;22.60;53.00;;;;;;5114702;28;20386;-66
2022/05/27 06:12:35;;;;;;;4.63;3.00;;;22.70;53.10;;;;;;5114893;28;20467;-66
2022/05/27 06:15:04;;;;;;;4.00;2.90;;;22.60;53.00;;;;;;5114572;28;20377;-66
2022/05/27 06:17:30;;;;;;;3.90;2.70;;;22.60;53.10;;;;;;5114793;28;20391;-65
2022/05/27 06:19:56;;;;;;;4.10;2.70;;;22.60;53.70;;;;;;5114351;28;20380;-65
2022/05/27 06:22:21;;;;;;;3.17;2.60;;;22.60;53.10;;;;;;5114505;28;20420;-66
2022/05/27 06:24:47;;;;;;;4.72;2.55;;;22.60;53.10;;;;;;5113987;28;20380;-66
2022/05/27 06:27:13;;;;;;;3.65;2.75;;;22.60;53.20;;;;;;5112828;28;20392;-66
2022/05/27 06:35:08;;;;;;;3.28;2.80;;;22.60;53.20;;;;;;5113922;28;20406;-66
2022/05/27 06:37:34;;;;;;;3.90;2.80;;;22.60;53.20;;;;;;5114416;28;20388;-65
2022/05/27 06:40:00;;;;;;;4.15;2.80;;;22.60;53.20;;;;;;5113032;28;20884;-66
2022/05/27 06:42:25;;;;;;;3.80;2.78;;;22.60;53.20;;;;;;5114127;28;20416;-66
2022/05/27 06:44:51;;;;;;;3.40;2.70;;;22.60;53.20;;;;;;5113978;28;20498;-66
2022/05/27 06:47:17;;;;;;;3.85;3.22;;;22.60;53.20;;;;;;5112292;28;20396;-65
2022/05/27 06:49:45;;;;;;;5.00;3.72;;;22.70;53.30;;;;;;5114088;28;20931;-65
2022/05/27 06:52:13;;;;;;;4.85;4.20;;;22.60;53.20;;;;;;5112453;28;20753;-65
2022/05/27 06:54:39;;;;;;;5.03;4.10;;;22.60;53.20;;;;;;5112773;28;20384;-65
2022/05/27 06:57:06;;;;;;;4.10;3.65;;;22.60;53.20;;;;;;5112232;28;20388;-65
2022/05/27 06:59:33;;;;;;;4.28;3.40;;;22.60;53.20;;;;;;5113937;28;20382;-66
2022/05/27 07:01:59;;;;;;;3.80;3.40;;;22.60;53.20;;;;;;5102394;28;20447;-66
2022/05/27 07:04:25;;;;;;;4.95;3.40;;;22.60;53.30;;;;;;5093255;28;20467;-66
2022/05/27 07:06:51;;;;;;;3.97;3.17;;;22.60;53.30;;;;;;5093136;28;21073;-65
2022/05/27 07:09:22;;;;;;;3.97;3.20;;;22.60;53.30;;;;;;5101655;28;20390;-66
2022/05/27 07:11:50;;;;;;;3.63;3.30;;;22.60;53.30;;;;;;5108005;28;20756;-65
2022/05/27 07:14:17;;;;;;;3.45;2.85;;;22.60;53.30;;;;;;5101737;28;20447;-65
2022/05/27 07:16:45;;;;;;;3.17;2.88;;;22.60;53.30;;;;;;5105788;28;20441;-65
2022/05/27 07:19:11;;;;;;;4.17;3.10;;;22.60;53.30;;;;;;5099968;28;20382;-65
2022/05/27 07:21:41;;;;;;;4.25;3.00;;;22.60;53.30;;;;;;5093051;28;20405;-65
2022/05/27 07:24:09;;;;;;;5.50;2.70;;;22.60;53.20;;;;;;5091252;28;20412;-65
2022/05/27 07:26:36;;;;;;;3.45;2.80;;;22.60;53.00;;;;;;5092682;28;20382;-66
2022/05/27 07:29:02;;;;;;;5.38;2.92;;;22.60;52.90;;;;;;5088309;28;20396;-65
2022/05/27 07:31:29;;;;;;;3.90;2.90;;;22.60;52.90;;;;;;5078616;28;20445;-66
2022/05/27 07:33:55;;;;;;;4.05;2.70;;;22.60;53.00;;;;;;5081489;28;20398;-66
2022/05/27 07:36:21;;;;;;;3.53;2.88;;;22.60;53.00;;;;;;5082332;28;20387;-66
2022/05/27 07:38:51;;;;;;;3.35;2.88;;;22.60;52.90;;;;;;5080722;28;20442;-65
2022/05/27 07:41:17;;;;;;;4.93;2.90;;;22.60;53.00;;;;;;5071978;28;20379;-65
2022/05/27 07:43:44;;;;;;;3.65;2.70;;;22.60;53.20;;;;;;5072335;28;20388;-66
2022/05/27 07:46:10;;;;;;;3.55;2.50;;;22.60;53.20;;;;;;5072268;28;20388;-65
2022/05/27 07:48:36;;;;;;;4.63;2.90;;;22.60;53.30;;;;;;5072309;28;20384;-65
2022/05/27 07:51:01;;;;;;;3.50;2.80;;;22.60;53.30;;;;;;5071645;28;20453;-66
2022/05/27 07:53:27;;;;;;;3.53;2.90;;;22.60;53.30;;;;;;5072261;28;20392;-65
2022/05/27 07:55:52;;;;;;;3.92;3.05;;;22.60;53.30;;;;;;5072287;28;20383;-66
2022/05/27 07:58:18;;;;;;;4.60;2.90;;;22.60;53.30;;;;;;5071447;28;20399;-66
2022/05/27 08:00:44;;;;;;;3.72;2.70;;;22.70;53.40;;;;;;5071740;28;20380;-66
2022/05/27 08:03:10;;;;;;;3.88;2.90;;;22.70;53.30;;;;;;5071428;28;20419;-66
2022/05/27 08:05:36;;;;;;;3.20;2.80;;;22.70;53.30;;;;;;5072013;28;20844;-66
2022/05/27 08:08:02;;;;;;;4.15;2.97;;;22.70;53.20;;;;;;5085567;28;20394;-66
2022/05/27 08:10:31;;;;;;;4.00;3.13;;;22.70;53.50;;;;;;5073088;28;20390;-66
2022/05/27 08:12:57;;;;;;;3.22;2.92;;;22.70;53.60;;;;;;5091894;28;20387;-65
2022/05/27 08:15:23;;;;;;;3.22;2.63;;;22.70;53.50;;;;;;5091792;28;20386;-65
2022/05/27 08:17:49;;;;;;;3.50;2.80;;;22.70;53.50;;;;;;5092063;28;20872;-65
2022/05/27 08:20:18;;;;;;;3.55;2.35;;;22.70;53.50;;;;;;5091713;28;20409;-65
2022/05/27 08:22:45;;;;;;;3.83;2.72;;;22.70;53.50;;;;;;5091202;28;20502;-66
2022/05/27 08:25:11;;;;;;;3.80;2.75;;;22.70;53.50;;;;;;5072917;28;20408;-65
2022/05/27 08:27:36;;;;;;;3.40;2.60;;;22.70;53.50;;;;;;5092239;28;20473;-65
2022/05/27 08:30:04;;;;;;;3.60;2.60;;;22.70;53.40;;;;;;5091812;28;21065;-66
2022/05/27 08:32:31;;;;;;;3.78;2.75;;;22.70;53.40;;;;;;5073738;28;20890;-65
2022/05/27 08:41:01;;;;;;;3.10;2.80;;;22.80;53.30;;;;;;5091735;28;20849;-65
2022/05/27 08:43:51;;;;;;;2.80;2.30;;;22.80;53.90;;;;;;5002094;28;20414;-66
2022/05/27 08:46:36;;;;;;;3.45;2.40;;;22.80;53.20;;;;;;5090916;28;20395;-66
2022/05/27 08:49:07;;;;;;;2.92;2.40;;;22.80;53.20;;;;;;5091397;28;20473;-66
2022/05/27 08:52:01;;;;;;;4.30;2.60;;;22.80;53.20;;;;;;5091540;28;20393;-65
2022/05/27 08:54:35;;;;;;;2.55;2.35;;;22.80;53.20;;;;;;5091373;28;20423;-66
2022/05/27 09:00:14;;;;;;;3.03;2.53;;;22.90;53.20;;;;;;5091953;28;20903;-65
2022/05/27 09:02:44;;;;;;;3.27;2.20;;;22.90;53.20;;;;;;5090689;28;20848;-66
2022/05/27 09:05:26;;;;;;;2.80;2.42;;;22.90;53.20;;;;;;5090610;28;20858;-66
2022/05/27 09:08:32;;;;;;;2.90;2.50;;;22.90;53.20;;;;;;5090799;28;20394;-66
2022/05/27 09:11:29;;;;;;;3.33;2.40;;;22.90;53.10;;;;;;5088911;28;20405;-66
2022/05/27 09:14:15;;;;;;;2.40;2.20;;;23.00;53.20;;;;;;5075373;28;20457;-65
2022/05/27 09:17:15;;;;;;;2.85;2.40;;;22.90;53.10;;;;;;5074083;28;20396;-66
2022/05/27 09:19:58;;;;;;;2.92;2.63;;;23.00;53.10;;;;;;5041707;28;20395;-65
2022/05/27 09:22:27;;;;;;;2.85;2.42;;;23.00;53.00;;;;;;5075172;28;20423;-65
2022/05/27 09:25:34;;;;;;;3.00;2.30;;;23.00;53.10;;;;;;5077601;28;20378;-67
2022/05/27 09:28:32;;;;;;;2.83;2.22;;;23.00;53.10;;;;;;5082977;28;20511;-66
2022/05/27 09:31:00;;;;;;;2.47;2.20;;;23.00;53.00;;;;;;5087890;28;20821;-66
2022/05/27 09:33:27;;;;;;;2.70;2.20;;;23.00;53.00;;;;;;5094964;28;20381;-65
2022/05/27 09:36:04;;;;;;;2.53;2.20;;;23.00;53.00;;;;;;5095191;28;20382;-66
2022/05/27 09:38:34;;;;;;;3.30;2.20;;;23.10;53.00;;;;;;5095068;28;20438;-65
2022/05/27 09:41:23;;;;;;;2.97;2.17;;;23.00;52.90;;;;;;5094711;28;20443;-66
2022/05/27 09:44:03;;;;;;;2.08;1.88;;;23.10;52.90;;;;;;5094375;28;20882;-66
2022/05/27 09:46:31;;;;;;;2.60;2.00;;;23.10;52.90;;;;;;5093748;28;20393;-66
2022/05/27 09:48:57;;;;;;;2.80;2.05;;;23.10;52.90;;;;;;5093519;28;20394;-65
2022/05/27 09:51:26;;;;;;;2.30;2.10;;;23.10;52.90;;;;;;5092007;28;20412;-66
2022/05/27 09:54:29;;;;;;;2.15;1.95;;;23.10;52.90;;;;;;5093616;28;20929;-66
2022/05/27 09:57:17;;;;;;;2.33;2.13;;;23.20;52.90;;;;;;5091315;28;20417;-66
2022/05/27 09:59:46;;;;;;;2.60;2.10;;;23.10;52.80;;;;;;5092492;28;20378;-65
2022/05/27 10:02:17;;;;;;;2.22;2.00;;;23.10;52.80;;;;;;5093532;28;20422;-66
2022/05/27 10:04:55;;;;;;;2.38;1.80;;;23.20;52.80;;;;;;5093501;28;20379;-66
2022/05/27 10:07:42;;;;;;;2.30;1.80;;;23.20;52.80;;;;;;5091382;28;20917;-66
2022/05/27 10:10:37;;;;;;;2.15;1.95;;;23.20;52.70;;;;;;5091545;28;20396;-66
2022/05/27 10:13:30;;;;;;;2.95;1.95;;;23.20;52.80;;;;;;5089605;28;20402;-66
2022/05/27 10:16:04;;;;;;;2.20;2.00;;;23.20;52.80;;;;;;5093183;28;20796;-66
2022/05/27 10:18:29;;;;;;;2.05;1.85;;;23.20;52.60;;;;;;5093126;28;20398;-66
2022/05/27 10:21:01;;;;;;;2.50;2.00;;;23.30;52.80;;;;;;5093123;28;20422;-66
2022/05/27 10:23:35;;;;;;;2.45;2.15;;;23.20;52.70;;;;;;5092868;28;20418;-65
2022/05/27 10:26:18;;;;;;;2.75;2.13;;;23.30;52.70;;;;;;5092812;28;20965;-65
2022/05/27 10:28:55;;;;;;;3.88;1.92;;;23.30;52.70;;;;;;5090368;28;20390;-65
2022/05/27 10:31:20;;;;;;;3.80;1.90;;;23.30;52.70;;;;;;5090119;28;20397;-66
2022/05/27 10:33:47;;;;;;;2.80;1.93;;;23.30;52.60;;;;;;5092818;28;20378;-66
2022/05/27 10:37:10;;;;;;;3.03;1.88;;;23.30;52.70;;;;;;5092780;28;20485;-66
2022/05/27 10:40:12;;;;;;;2.25;1.83;;;23.30;52.50;;;;;;5030311;28;20403;-66
2022/05/27 10:42:52;;;;;;;3.20;1.88;;;23.40;52.50;;;;;;5030266;28;20458;-66
2022/05/27 10:45:31;;;;;;;2.97;1.60;;;23.30;52.50;;;;;;5077890;28;20390;-66
2022/05/27 10:48:06;;;;;;;2.10;1.63;;;23.40;52.40;;;;;;5092534;28;20878;-66
2022/05/27 10:50:45;;;;;;;2.00;1.60;;;23.40;52.40;;;;;;5092491;28;20428;-66
2022/05/27 10:53:49;;;;;;;2.90;1.88;;;23.40;52.30;;;;;;5091784;28;20397;-66
2022/05/27 10:56:31;;;;;;;2.00;1.80;;;23.40;52.30;;;;;;5073330;28;20388;-66
2022/05/27 11:02:23;;;;;;;2.50;1.80;;;23.40;52.20;;;;;;5076048;28;20571;-66
2022/05/27 11:04:48;;;;;;;2.28;1.63;;;23.40;52.20;;;;;;5092299;28;20370;-66
2022/05/27 11:07:29;;;;;;;2.17;1.75;;;23.40;52.20;;;;;;5090655;28;20755;-67
2022/05/27 11:10:25;;;;;;;2.22;1.70;;;23.50;52.30;;;;;;5092519;28;20390;-66
2022/05/27 11:16:39;;;;;;;2.20;1.90;;;23.50;52.10;;;;;;5092564;28;20381;-66
2022/05/27 11:19:20;;;;;;;2.10;1.70;;;23.50;52.10;;;;;;5089852;28;20470;-66
2022/05/27 11:22:10;;;;;;;2.50;2.00;;;23.50;52.10;;;;;;5072701;28;20498;-66
2022/05/27 11:24:48;;;;;;;2.00;1.80;;;23.50;52.00;;;;;;5071586;28;20390;-66
2022/05/27 11:27:36;;;;;;;2.00;1.70;;;23.60;52.10;;;;;;5071085;28;20399;-66
2022/05/27 11:30:43;;;;;;;2.00;1.80;;;23.60;52.00;;;;;;5088565;28;20478;-66
2022/05/27 11:33:33;;;;;;;2.22;1.80;;;23.60;52.00;;;;;;5087910;28;20390;-66
2022/05/27 11:36:13;;;;;;;1.90;1.70;;;23.60;51.90;;;;;;5090926;28;20392;-65
2022/05/27 11:39:17;;;;;;;3.88;1.70;;;23.60;51.90;;;;;;5092814;28;20830;-67
2022/05/27 11:42:10;;;;;;;2.45;1.70;;;23.60;52.20;;;;;;5092682;28;20405;-66
2022/05/27 11:44:42;;;;;;;3.17;1.40;;;23.60;52.20;;;;;;5082863;28;20426;-66
2022/05/27 11:47:37;;;;;;;2.03;1.80;;;23.60;52.10;;;;;;5092352;28;20436;-66
2022/05/27 11:50:21;;;;;;;2.63;1.70;;;23.60;52.10;;;;;;5089410;28;20882;-66
2022/05/27 11:52:56;;;;;;;2.83;1.90;;;23.60;51.90;;;;;;5088655;28;20390;-66
2022/05/27 11:55:28;;;;;;;2.28;1.60;;;23.60;51.90;;;;;;5092147;28;20382;-66
2022/05/27 11:57:54;;;;;;;2.40;1.88;;;23.60;52.20;;;;;;5093161;28;20382;-66
2022/05/27 12:00:24;;;;;;;2.90;2.00;;;23.60;52.40;;;;;;5092178;28;20435;-66
2022/05/27 12:02:59;;;;;;;4.25;2.50;;;23.60;52.40;;;;;;5092300;28;20414;-66
2022/05/27 12:05:30;;;;;;;2.80;1.95;;;23.60;52.40;;;;;;5091830;28;20773;-66
2022/05/27 12:08:02;;;;;;;2.78;2.20;;;23.60;52.70;;;;;;5090957;28;20829;-66
2022/05/27 12:10:37;;;;;;;2.35;2.15;;;23.60;52.20;;;;;;5092308;28;20473;-66
2022/05/27 12:13:36;;;;;;;3.03;2.03;;;23.60;52.50;;;;;;5091079;28;20386;-66
2022/05/27 12:16:27;;;;;;;2.85;2.08;;;23.60;52.30;;;;;;5092181;28;20382;-66
2022/05/27 12:19:04;;;;;;;2.80;1.90;;;23.70;52.40;;;;;;5090917;28;20386;-66
2022/05/27 12:22:06;;;;;;;2.17;1.85;;;23.60;52.30;;;;;;5091745;28;20401;-66
2022/05/27 12:24:45;;;;;;;2.50;2.05;;;23.60;52.20;;;;;;5078670;28;20409;-66
2022/05/27 12:27:14;;;;;;;2.33;1.75;;;23.60;52.30;;;;;;5091984;28;20385;-66
2022/05/27 12:29:42;;;;;;;2.72;2.10;;;23.60;52.30;;;;;;5091974;28;20382;-66
2022/05/27 12:32:10;;;;;;;3.28;1.88;;;23.60;52.20;;;;;;5091848;28;20382;-66
2022/05/27 12:34:39;;;;;;;2.13;1.80;;;23.60;52.30;;;;;;5091802;28;20469;-66
2022/05/27 12:37:21;;;;;;;12.65;2.90;;;23.70;52.40;;;;;;5091817;28;20378;-66
2022/05/27 12:39:49;;;;;;;15.77;4.10;;;23.60;52.70;;;;;;5091801;28;20443;-66
2022/05/27 12:42:20;;;;;;;16.10;3.65;;;23.70;52.80;;;;;;5091659;28;20409;-66
2022/05/27 12:44:47;;;;;;;25.67;6.50;;;23.70;53.00;;;;;;5090130;28;20443;-66
2022/05/27 12:47:29;;;;;;;33.28;9.02;;;23.70;52.90;;;;;;5091649;28;20800;-66
2022/05/27 12:50:06;;;;;;;26.85;8.70;;;23.70;52.70;;;;;;5091582;28;20898;-66
2022/05/27 12:52:32;;;;;;;50.60;13.57;;;23.70;52.50;;;;;;5091502;28;20413;-66
2022/05/27 12:55:10;;;;;;;49.75;12.60;;;23.70;52.50;;;;;;5091577;28;20386;-66
2022/05/27 13:00:57;;;;;;;39.88;12.13;;;23.70;52.60;;;;;;5091647;28;20385;-65
2022/05/27 13:03:35;;;;;;;43.55;13.10;;;23.70;54.10;;;;;;5090429;28;20417;-65
2022/05/27 13:06:19;;;;;;;48.20;13.20;;;23.70;53.50;;;;;;5087785;28;20394;-65
2022/05/27 13:08:51;;;;;;;51.72;14.27;;;23.80;53.40;;;;;;5088901;28;20866;-66
2022/05/27 13:11:34;;;;;;;41.33;13.37;;;23.80;53.30;;;;;;5090572;28;20477;-66
2022/05/27 13:14:16;;;;;;;43.50;13.00;;;23.80;52.90;;;;;;5091566;28;20394;-65
2022/05/27 13:16:59;;;;;;;39.25;11.75;;;23.80;52.80;;;;;;5091498;28;20893;-66
2022/05/27 13:19:40;;;;;;;38.15;11.13;;;23.80;52.60;;;;;;5089557;28;20386;-67
2022/05/27 13:22:11;;;;;;;26.92;9.93;;;23.80;52.70;;;;;;5091307;28;20410;-65
2022/05/27 13:24:43;;;;;;;33.17;9.20;;;23.70;52.60;;;;;;5091529;28;20374;-66
2022/05/27 13:27:21;;;;;;;31.63;9.48;;;23.70;53.00;;;;;;5093631;28;20421;-66
2022/05/27 13:30:01;;;;;;;31.48;10.48;;;23.70;52.60;;;;;;5091255;28;20712;-66
2022/05/27 13:32:30;;;;;;;33.25;9.73;;;23.70;53.10;;;;;;5091220;28;20390;-66
2022/05/27 13:34:55;;;;;;;28.73;9.40;;;23.70;52.90;;;;;;5091123;28;20385;-66
2022/05/27 13:37:29;;;;;;;26.07;8.70;;;23.70;52.90;;;;;;5090798;28;20378;-66
2022/05/27 13:39:59;;;;;;;22.60;7.93;;;23.70;52.80;;;;;;5091122;28;20385;-66
2022/05/27 13:42:34;;;;;;;27.13;8.73;;;23.70;52.80;;;;;;5090981;28;20410;-66
2022/05/27 13:45:08;;;;;;;29.85;9.40;;;23.70;52.80;;;;;;5091026;28;20923;-66
2022/05/27 13:47:39;;;;;;;25.00;8.60;;;23.70;52.80;;;;;;5090827;28;20390;-66